Time;durP1;ratioP1;P1;durP2;ratioP2;P2;SDS_P1;SDS_P2;PMS_P1;PMS_P2;Temp;Humidity;BMP_temperature;BMP_pressure;BME280_temperature;BME280_humidity;BME280_pressure;Samples;Min_cycle;Max_cycle;Signal;HPM_P1;HPM_P2
2021/04/20 00:01:33;;;;;;;6.93;4.30;;;18.40;56.90;;;;;;6214575;23;19996;-81
2021/04/20 00:03:59;;;;;;;6.75;4.53;;;18.40;56.80;;;;;;6214550;23;20009;-79
2021/04/20 00:06:24;;;;;;;5.57;4.18;;;18.40;56.80;;;;;;6214312;23;20058;-81
2021/04/20 00:08:50;;;;;;;8.18;4.95;;;18.40;56.70;;;;;;6214591;23;20032;-77
2021/04/20 00:11:16;;;;;;;7.40;4.65;;;18.30;56.70;;;;;;6214605;23;20015;-76
2021/04/20 00:13:41;;;;;;;6.13;4.47;;;18.30;56.60;;;;;;6214718;23;20007;-78
2021/04/20 00:16:07;;;;;;;7.22;5.05;;;18.30;56.60;;;;;;6214523;23;20023;-83
2021/04/20 00:18:33;;;;;;;7.45;4.80;;;18.30;56.40;;;;;;6214344;23;20444;-77
2021/04/20 00:20:59;;;;;;;6.55;4.25;;;18.30;56.40;;;;;;6187197;23;20037;-77
2021/04/20 00:23:26;;;;;;;9.40;4.20;;;18.30;56.40;;;;;;6214029;23;20127;-74
2021/04/20 00:25:51;;;;;;;6.28;4.10;;;18.30;56.30;;;;;;6214235;23;19997;-83
2021/04/20 00:28:25;;;;;;;8.13;4.43;;;18.30;56.30;;;;;;6213913;23;20008;-73
2021/04/20 00:30:51;;;;;;;5.55;4.13;;;18.30;56.20;;;;;;6213980;23;20047;-73
2021/04/20 00:33:18;;;;;;;7.32;4.68;;;18.20;56.20;;;;;;6187343;23;20000;-76
2021/04/20 00:35:44;;;;;;;6.40;4.82;;;18.20;56.10;;;;;;6214074;23;20009;-83
2021/04/20 00:38:10;;;;;;;6.53;4.50;;;18.20;56.00;;;;;;6214457;23;20032;-80
2021/04/20 00:40:36;;;;;;;8.48;4.75;;;18.20;56.10;;;;;;6214087;23;20008;-77
2021/04/20 00:43:02;;;;;;;8.60;4.88;;;18.20;56.00;;;;;;6214177;23;20095;-74
2021/04/20 00:45:31;;;;;;;8.25;4.88;;;18.20;56.00;;;;;;6213723;23;20345;-86
2021/04/20 00:47:57;;;;;;;6.45;5.50;;;18.20;55.90;;;;;;6213895;23;20005;-79
2021/04/20 00:50:28;;;;;;;8.75;4.65;;;18.10;56.00;;;;;;6186959;23;20016;-82
2021/04/20 00:52:54;;;;;;;6.93;4.70;;;18.10;56.00;;;;;;6186655;23;20012;-81
2021/04/20 00:55:20;;;;;;;7.40;4.63;;;18.10;55.90;;;;;;6213917;23;20001;-79
2021/04/20 00:57:46;;;;;;;7.30;4.38;;;18.10;55.80;;;;;;6214008;23;20075;-78
2021/04/20 01:00:26;;;;;;;6.93;4.70;;;18.10;55.80;;;;;;6214974;23;20467;-78
2021/04/20 01:02:52;;;;;;;7.35;4.45;;;18.10;55.70;;;;;;6213928;23;20347;-73
2021/04/20 01:05:29;;;;;;;9.02;5.03;;;18.10;55.70;;;;;;6213953;23;20472;-73
2021/04/20 01:08:05;;;;;;;8.55;4.82;;;18.10;55.60;;;;;;6214016;23;19997;-86
2021/04/20 01:10:33;;;;;;;;;;;18.00;55.60;;;;;;6214831;23;20436;-88
2021/04/20 01:12:59;;;;;;;7.30;4.50;;;18.00;55.60;;;;;;6214193;23;19905;-86
2021/04/20 01:15:25;;;;;;;6.85;4.55;;;18.00;55.60;;;;;;6214213;23;20034;-82
2021/04/20 01:17:50;;;;;;;6.28;4.72;;;18.00;55.60;;;;;;6214290;23;20437;-86
2021/04/20 01:20:17;;;;;;;7.05;4.53;;;17.90;55.50;;;;;;6214389;23;20468;-83
2021/04/20 01:22:45;;;;;;;7.15;4.40;;;17.90;55.50;;;;;;6214093;23;20473;-85
2021/04/20 01:25:13;;;;;;;6.63;4.78;;;17.90;55.50;;;;;;6213904;23;20008;-83
2021/04/20 01:27:39;;;;;;;5.57;3.90;;;17.90;55.50;;;;;;6187779;23;20011;-86
2021/04/20 01:30:07;;;;;;;6.60;4.63;;;17.90;55.40;;;;;;6216587;23;20040;-85
2021/04/20 01:32:36;;;;;;;7.43;5.35;;;17.90;55.40;;;;;;6216489;23;19997;-83
2021/04/20 01:35:04;;;;;;;5.97;4.28;;;17.90;55.40;;;;;;6216426;23;20028;-88
2021/04/20 01:37:30;;;;;;;7.03;4.35;;;17.80;55.30;;;;;;6216411;23;20009;-85
2021/04/20 01:39:56;;;;;;;8.18;5.03;;;17.80;55.40;;;;;;6216268;23;20384;-87
2021/04/20 01:42:22;;;;;;;7.65;4.90;;;17.80;55.40;;;;;;6216183;23;20083;-88
2021/04/20 01:44:47;;;;;;;6.95;4.28;;;17.80;55.30;;;;;;6216297;23;20000;-77
2021/04/20 01:47:13;;;;;;;6.15;4.28;;;17.80;55.20;;;;;;6216442;23;20042;-83
2021/04/20 01:49:39;;;;;;;6.35;4.15;;;17.80;55.20;;;;;;6216023;23;20484;-87
2021/04/20 01:52:05;;;;;;;8.80;5.03;;;17.80;55.10;;;;;;6215873;23;20433;-88
2021/04/20 01:54:32;;;;;;;6.10;4.40;;;17.80;55.40;;;;;;6216409;23;20452;-87
2021/04/20 01:57:00;;;;;;;6.55;3.95;;;17.80;55.00;;;;;;6215840;23;20000;-85
2021/04/20 01:59:26;;;;;;;6.38;4.47;;;17.80;55.00;;;;;;6215535;23;20000;-79
2021/04/20 02:01:52;;;;;;;7.15;4.38;;;17.70;55.00;;;;;;6215689;23;19997;-81
2021/04/20 02:04:18;;;;;;;8.10;4.90;;;17.70;55.00;;;;;;6215992;23;20072;-80
2021/04/20 02:06:44;;;;;;;6.18;4.03;;;17.70;54.90;;;;;;6189540;23;20039;-79
2021/04/20 02:09:10;;;;;;;5.22;4.07;;;17.70;54.90;;;;;;6215329;23;20001;-83
2021/04/20 02:11:36;;;;;;;5.88;4.63;;;17.70;55.00;;;;;;6215630;23;20438;-83
2021/04/20 02:14:03;;;;;;;6.68;3.85;;;17.60;54.90;;;;;;6215262;23;20152;-79
2021/04/20 02:16:29;;;;;;;4.75;3.65;;;17.70;55.00;;;;;;6215463;23;20345;-82
2021/04/20 02:19:04;;;;;;;5.45;4.03;;;17.70;54.90;;;;;;6215323;23;20001;-82
2021/04/20 02:21:31;;;;;;;5.43;3.90;;;17.60;54.80;;;;;;6215044;23;20446;-80
2021/04/20 02:23:57;;;;;;;4.68;3.35;;;17.60;54.80;;;;;;6215154;23;20227;-80
2021/04/20 02:26:33;;;;;;;6.55;4.05;;;17.60;54.80;;;;;;6215417;23;20069;-74
2021/04/20 02:29:04;;;;;;;5.15;3.40;;;17.60;54.80;;;;;;6214965;23;20502;-74
2021/04/20 02:31:42;;;;;;;5.82;3.47;;;17.60;54.80;;;;;;6215051;23;20051;-78
2021/04/20 02:34:09;;;;;;;6.90;3.50;;;17.60;54.70;;;;;;6215084;23;20004;-73
2021/04/20 02:36:43;;;;;;;5.05;3.20;;;17.60;54.70;;;;;;6214691;23;20012;-74
2021/04/20 02:39:10;;;;;;;4.63;3.42;;;17.60;54.80;;;;;;6187919;23;20319;-74
2021/04/20 02:41:39;;;;;;;4.43;3.35;;;17.50;54.70;;;;;;6215155;23;20334;-80
2021/04/20 02:44:07;;;;;;;4.63;2.75;;;17.50;54.70;;;;;;6214825;23;20011;-74
2021/04/20 02:46:34;;;;;;;5.55;3.72;;;17.50;54.80;;;;;;6214873;23;20004;-79
2021/04/20 02:49:00;;;;;;;6.80;4.05;;;17.50;54.80;;;;;;6215137;23;20004;-83
2021/04/20 02:51:26;;;;;;;5.45;3.92;;;17.50;54.80;;;;;;6214737;23;20012;-81
2021/04/20 02:53:53;;;;;;;5.82;3.70;;;17.40;54.70;;;;;;6214924;23;20000;-84
2021/04/20 02:56:20;;;;;;;4.43;3.63;;;17.40;54.70;;;;;;6215355;23;20001;-83
2021/04/20 02:58:46;;;;;;;5.07;3.20;;;17.40;54.70;;;;;;6215313;23;20072;-83
2021/04/20 03:01:23;;;;;;;4.32;3.30;;;17.40;54.80;;;;;;6214680;23;20000;-81
2021/04/20 03:03:50;;;;;;;5.07;3.83;;;17.40;54.80;;;;;;6188184;23;20005;-82
2021/04/20 03:06:17;;;;;;;6.10;3.72;;;17.40;54.80;;;;;;6188883;23;20012;-84
2021/04/20 03:08:44;;;;;;;4.70;3.47;;;17.40;54.80;;;;;;6188310;23;20005;-85
2021/04/20 03:11:26;;;;;;;6.32;4.38;;;17.40;54.80;;;;;;6214807;23;20079;-81
2021/04/20 03:13:52;;;;;;;6.68;4.00;;;17.40;54.80;;;;;;6214778;23;20007;-81
2021/04/20 03:16:18;;;;;;;4.40;3.28;;;17.30;54.80;;;;;;6214961;23;20386;-84
2021/04/20 03:18:47;;;;;;;5.30;3.88;;;17.30;54.70;;;;;;6214831;23;20341;-82
2021/04/20 03:21:16;;;;;;;5.03;3.30;;;17.30;54.70;;;;;;6214525;23;20005;-82
2021/04/20 03:23:43;;;;;;;6.35;3.70;;;17.40;54.70;;;;;;6214515;23;20063;-84
2021/04/20 03:26:23;;;;;;;7.32;4.50;;;17.30;54.60;;;;;;6214659;23;19996;-83
2021/04/20 03:28:55;;;;;;;5.38;3.88;;;17.30;54.60;;;;;;6214599;23;20338;-82
2021/04/20 03:31:20;;;;;;;6.35;4.32;;;17.30;54.70;;;;;;6215030;23;20009;-80
2021/04/20 03:33:52;;;;;;;7.07;4.80;;;17.30;54.70;;;;;;6214471;23;20085;-81
2021/04/20 03:36:24;;;;;;;6.80;4.57;;;17.30;54.80;;;;;;6214643;23;20000;-83
2021/04/20 03:39:02;;;;;;;8.15;4.50;;;17.30;54.70;;;;;;6188168;23;20353;-82
2021/04/20 03:41:34;;;;;;;6.22;4.20;;;17.30;54.80;;;;;;6214587;23;20000;-79
2021/04/20 03:44:01;;;;;;;5.43;4.10;;;17.20;54.80;;;;;;6214461;23;20084;-83
2021/04/20 03:46:33;;;;;;;7.15;4.70;;;17.20;54.80;;;;;;6187528;23;20011;-82
2021/04/20 03:49:03;;;;;;;9.18;5.18;;;17.20;54.80;;;;;;6187470;23;20015;-77
2021/04/20 03:51:31;;;;;;;6.68;4.68;;;17.20;54.80;;;;;;6187258;23;20036;-77
2021/04/20 03:54:04;;;;;;;8.15;4.82;;;17.20;54.80;;;;;;6214423;23;20008;-77
2021/04/20 03:56:31;;;;;;;6.07;4.63;;;17.20;54.90;;;;;;6214531;23;20079;-81
2021/04/20 03:59:00;;;;;;;5.97;4.32;;;17.20;54.80;;;;;;6214139;23;20059;-78
2021/04/20 04:01:30;;;;;;;6.55;4.45;;;17.20;54.80;;;;;;6187627;23;20522;-80
2021/04/20 04:03:56;;;;;;;6.18;4.35;;;17.20;54.90;;;;;;6214116;23;20096;-76
2021/04/20 04:06:23;;;;;;;6.63;4.70;;;17.20;54.90;;;;;;6214656;23;20032;-77
2021/04/20 04:08:50;;;;;;;5.95;4.10;;;17.20;54.90;;;;;;6214179;23;20008;-76
2021/04/20 04:11:16;;;;;;;5.68;4.55;;;17.20;54.90;;;;;;6214185;23;20024;-75
2021/04/20 04:13:43;;;;;;;5.75;4.65;;;17.20;54.90;;;;;;6214232;23;20001;-80
2021/04/20 04:16:12;;;;;;;5.45;3.80;;;17.20;54.80;;;;;;6213974;23;20011;-78
2021/04/20 04:18:43;;;;;;;7.20;5.10;;;17.20;54.90;;;;;;6213929;23;20011;-78
2021/04/20 04:21:09;;;;;;;5.25;4.20;;;17.10;54.80;;;;;;6214096;23;20000;-84
2021/04/20 04:23:40;;;;;;;6.47;4.60;;;17.20;54.90;;;;;;6214045;23;20425;-76
2021/04/20 04:26:14;;;;;;;5.72;4.43;;;17.10;54.80;;;;;;6214109;23;19997;-76
2021/04/20 04:28:44;;;;;;;5.57;4.05;;;17.10;54.90;;;;;;6214042;23;20004;-77
2021/04/20 04:31:11;;;;;;;5.22;4.18;;;17.10;54.90;;;;;;6213729;23;20438;-78
2021/04/20 04:33:40;;;;;;;6.60;4.70;;;17.10;54.80;;;;;;6214077;23;20001;-84
2021/04/20 04:36:08;;;;;;;5.65;4.45;;;17.10;54.90;;;;;;6213946;23;20000;-82
2021/04/20 04:38:34;;;;;;;5.57;3.97;;;17.10;54.90;;;;;;6213974;23;20063;-77
2021/04/20 04:41:00;;;;;;;6.15;4.70;;;17.10;54.90;;;;;;6213952;23;20009;-83
2021/04/20 04:43:27;;;;;;;5.28;4.30;;;17.10;55.00;;;;;;6214007;23;20050;-75
2021/04/20 04:45:57;;;;;;;7.13;4.50;;;17.10;55.00;;;;;;6213936;23;20001;-74
2021/04/20 04:48:24;;;;;;;5.38;4.45;;;17.10;55.00;;;;;;6214324;23;20464;-77
2021/04/20 04:50:52;;;;;;;5.72;4.10;;;17.00;54.90;;;;;;6213605;23;20019;-74
2021/04/20 04:53:18;;;;;;;5.72;4.65;;;17.00;55.00;;;;;;6213512;23;20008;-79
2021/04/20 04:55:44;;;;;;;5.57;4.53;;;17.00;54.90;;;;;;6213668;23;20032;-74
2021/04/20 04:58:11;;;;;;;6.30;4.85;;;17.00;54.90;;;;;;6213521;23;20001;-84
2021/04/20 05:00:38;;;;;;;5.57;4.28;;;17.00;55.00;;;;;;6213557;23;20035;-74
2021/04/20 05:03:07;;;;;;;5.22;4.10;;;17.00;55.00;;;;;;6213681;23;19996;-79
2021/04/20 05:05:38;;;;;;;5.57;4.32;;;17.00;55.00;;;;;;6213865;23;20000;-82
2021/04/20 05:08:05;;;;;;;5.38;4.20;;;17.00;54.90;;;;;;6213813;23;20000;-84
2021/04/20 05:10:31;;;;;;;5.18;4.00;;;17.00;54.90;;;;;;6213581;23;20071;-83
2021/04/20 05:13:00;;;;;;;4.95;3.83;;;17.00;55.00;;;;;;6214163;23;20009;-84
2021/04/20 05:15:25;;;;;;;4.75;3.58;;;17.00;55.00;;;;;;6213515;23;20008;-82
2021/04/20 05:17:51;;;;;;;5.63;3.85;;;17.00;55.00;;;;;;6213801;23;20384;-80
2021/04/20 05:20:19;;;;;;;4.35;3.72;;;17.00;55.00;;;;;;6213371;23;20011;-84
2021/04/20 05:22:46;;;;;;;5.03;3.60;;;17.00;55.00;;;;;;6214117;23;20000;-78
2021/04/20 05:25:16;;;;;;;4.28;3.47;;;17.00;55.00;;;;;;6187199;23;20008;-80
2021/04/20 05:27:43;;;;;;;5.63;3.78;;;16.90;54.90;;;;;;6214020;23;20001;-86
2021/04/20 05:30:10;;;;;;;4.60;3.63;;;17.00;54.90;;;;;;6213706;23;20012;-82
2021/04/20 05:32:38;;;;;;;5.60;4.25;;;16.90;55.00;;;;;;6213661;23;20068;-78
2021/04/20 05:35:05;;;;;;;4.97;4.10;;;16.90;55.00;;;;;;6213612;23;20001;-77
2021/04/20 05:37:37;;;;;;;5.13;3.83;;;16.90;55.00;;;;;;6186952;23;20012;-78
2021/04/20 05:40:24;;;;;;;4.50;3.80;;;16.90;55.00;;;;;;6213455;23;20001;-76
2021/04/20 05:42:56;;;;;;;5.15;4.20;;;16.90;55.00;;;;;;6213622;23;20007;-80
2021/04/20 05:45:23;;;;;;;4.22;3.65;;;16.90;55.00;;;;;;6186492;23;20386;-83
2021/04/20 05:47:50;;;;;;;5.70;4.35;;;16.90;55.00;;;;;;6186820;23;20512;-83
2021/04/20 05:50:20;;;;;;;4.55;3.85;;;16.90;55.00;;;;;;6213715;23;20016;-79
2021/04/20 05:52:46;;;;;;;5.05;3.63;;;16.90;55.00;;;;;;6186738;23;20000;-82
2021/04/20 05:55:13;;;;;;;3.92;3.50;;;16.90;55.00;;;;;;6212731;23;20004;-82
2021/04/20 05:57:39;;;;;;;5.50;3.92;;;16.90;55.00;;;;;;6212642;23;20080;-79
2021/04/20 06:00:08;;;;;;;4.43;3.63;;;16.90;55.60;;;;;;6212887;23;20035;-77
2021/04/20 06:02:37;;;;;;;4.00;3.58;;;16.90;55.10;;;;;;6212424;23;20008;-80
2021/04/20 06:05:24;;;;;;;4.18;3.08;;;16.80;55.10;;;;;;6213460;23;20071;-78
2021/04/20 06:07:53;;;;;;;4.72;3.50;;;16.90;55.00;;;;;;6213453;23;20007;-79
2021/04/20 06:10:19;;;;;;;4.22;3.70;;;16.90;55.00;;;;;;6213705;23;20012;-79
2021/04/20 06:12:46;;;;;;;4.45;3.65;;;16.90;54.90;;;;;;6186213;23;20393;-79
2021/04/20 06:15:15;;;;;;;4.47;3.75;;;17.00;54.90;;;;;;6214031;23;20027;-83
2021/04/20 06:17:41;;;;;;;3.83;3.05;;;17.00;54.80;;;;;;6214901;23;20000;-76
2021/04/20 06:20:11;;;;;;;3.90;3.05;;;17.10;54.80;;;;;;6215177;23;20008;-76
2021/04/20 06:22:40;;;;;;;3.83;2.72;;;17.20;54.70;;;;;;6215058;23;20004;-78
2021/04/20 06:25:10;;;;;;;6.65;3.20;;;17.20;54.60;;;;;;6215313;23;20005;-76
2021/04/20 06:27:36;;;;;;;5.80;3.65;;;17.30;55.00;;;;;;6214213;23;20051;-76
2021/04/20 06:30:02;;;;;;;7.65;3.90;;;17.40;55.00;;;;;;6215059;23;20013;-77
2021/04/20 06:32:28;;;;;;;6.38;3.90;;;17.40;55.10;;;;;;6215409;23;20058;-76
2021/04/20 06:34:55;;;;;;;7.00;4.05;;;17.50;55.20;;;;;;6215156;23;20004;-78
2021/04/20 06:37:21;;;;;;;6.05;3.92;;;17.60;55.10;;;;;;6163604;23;20350;-77
2021/04/20 06:39:47;;;;;;;6.40;4.97;;;17.60;55.10;;;;;;6215025;23;20097;-77
2021/04/20 06:42:20;;;;;;;7.22;5.72;;;17.70;55.00;;;;;;6214090;23;20004;-77
2021/04/20 06:44:52;;;;;;;7.40;4.97;;;17.80;55.20;;;;;;6214717;23;20331;-76
2021/04/20 06:47:29;;;;;;;9.27;6.25;;;17.90;55.50;;;;;;6213740;23;20028;-76
2021/04/20 06:50:00;;;;;;;11.02;7.10;;;17.90;55.30;;;;;;6213762;23;20007;-75
2021/04/20 06:52:31;;;;;;;10.85;6.97;;;18.00;55.00;;;;;;6214796;23;20004;-77
2021/04/20 06:55:19;;;;;;;11.70;5.80;;;18.00;55.00;;;;;;6214605;23;20005;-76
2021/04/20 06:58:09;;;;;;;8.65;6.95;;;18.10;55.20;;;;;;6214111;23;20349;-76
2021/04/20 07:00:45;;;;;;;10.10;7.68;;;18.10;55.20;;;;;;6212401;23;20005;-76
2021/04/20 07:03:14;;;;;;;11.20;8.00;;;18.20;55.00;;;;;;6212928;23;19997;-77
2021/04/20 07:05:39;;;;;;;10.07;8.45;;;18.20;55.00;;;;;;6214293;23;20076;-76
2021/04/20 07:08:14;;;;;;;12.00;9.35;;;18.20;54.90;;;;;;6213937;23;20517;-76
2021/04/20 07:10:44;;;;;;;14.25;10.40;;;18.20;54.90;;;;;;6213754;23;20095;-76
2021/04/20 07:13:13;;;;;;;14.07;10.52;;;18.30;54.80;;;;;;6213548;23;20027;-78
2021/04/20 07:15:47;;;;;;;13.65;10.45;;;18.30;54.70;;;;;;6213897;23;20055;-78
2021/04/20 07:18:24;;;;;;;12.10;8.93;;;18.30;54.70;;;;;;6213952;23;20032;-78
2021/04/20 07:21:32;;;;;;;12.68;9.98;;;18.30;54.60;;;;;;6212917;23;20005;-78
2021/04/20 07:24:43;;;;;;;19.38;13.63;;;18.30;54.50;;;;;;6214055;23;20001;-75
2021/04/20 07:27:34;;;;;;;16.17;11.88;;;18.30;54.50;;;;;;6208700;23;20004;-78
2021/04/20 07:30:09;;;;;;;16.35;11.95;;;18.30;54.50;;;;;;6214265;23;20005;-77
2021/04/20 07:32:55;;;;;;;15.80;11.90;;;18.30;54.40;;;;;;6215081;23;20031;-77
2021/04/20 07:35:44;;;;;;;19.25;12.35;;;18.30;54.50;;;;;;6214573;23;20458;-76
2021/04/20 07:38:41;;;;;;;18.05;12.93;;;18.30;54.50;;;;;;6214515;23;20015;-76
2021/04/20 07:41:26;;;;;;;18.40;12.18;;;18.30;54.50;;;;;;6214691;23;20004;-78
2021/04/20 07:44:23;;;;;;;19.33;12.90;;;18.30;54.30;;;;;;6187902;23;20078;-76
2021/04/20 07:46:54;;;;;;;25.08;13.68;;;18.30;54.30;;;;;;6214581;23;20066;-77
2021/04/20 07:49:50;;;;;;;28.50;14.30;;;18.30;54.40;;;;;;6214132;23;20005;-79
2021/04/20 07:52:28;;;;;;;24.48;14.68;;;18.30;55.00;;;;;;6188366;23;20012;-78
2021/04/20 07:54:57;;;;;;;25.98;14.65;;;18.30;55.00;;;;;;6214243;23;20370;-79
2021/04/20 07:57:56;;;;;;;22.23;14.45;;;18.30;55.70;;;;;;6214259;23;20005;-79
2021/04/20 08:00:33;;;;;;;20.92;14.27;;;18.30;56.10;;;;;;6213785;23;20001;-79
2021/04/20 08:03:22;;;;;;;21.27;13.85;;;18.30;56.90;;;;;;6214415;23;20009;-80
2021/04/20 08:06:00;;;;;;;21.92;14.35;;;18.30;56.80;;;;;;6186805;23;20005;-79
2021/04/20 08:09:03;;;;;;;27.52;13.77;;;18.30;57.00;;;;;;6214078;23;20004;-79
2021/04/20 08:11:47;;;;;;;21.05;13.05;;;18.30;57.20;;;;;;6092806;23;20101;-78
2021/04/20 08:14:30;;;;;;;25.33;13.57;;;18.30;57.60;;;;;;6204264;23;20011;-79
2021/04/20 08:17:07;;;;;;;19.42;13.38;;;18.30;57.60;;;;;;6212986;23;20028;-77
2021/04/20 08:19:37;;;;;;;22.42;14.40;;;18.30;57.70;;;;;;6212502;23;20009;-80
2021/04/20 08:22:05;;;;;;;20.67;13.45;;;18.30;58.00;;;;;;6212824;23;20005;-77
2021/04/20 08:24:42;;;;;;;21.92;13.82;;;18.30;57.90;;;;;;6212277;23;20088;-80
2021/04/20 08:27:15;;;;;;;18.65;13.13;;;18.30;58.00;;;;;;6213233;23;19996;-77
2021/04/20 08:29:46;;;;;;;18.42;13.27;;;18.30;57.70;;;;;;6212424;23;20032;-79
2021/04/20 08:32:25;;;;;;;16.77;12.43;;;18.30;57.60;;;;;;6186217;23;20009;-79
2021/04/20 08:35:30;;;;;;;17.77;12.70;;;18.30;57.60;;;;;;6212930;23;20076;-77
2021/04/20 08:38:23;;;;;;;21.63;13.32;;;18.30;57.30;;;;;;6092593;23;20107;-76
2021/04/20 08:41:28;;;;;;;19.20;12.65;;;18.30;57.40;;;;;;6092887;23;20498;-77
2021/04/20 08:44:19;;;;;;;17.98;12.90;;;18.30;57.30;;;;;;6204381;23;20024;-76
2021/04/20 08:47:11;;;;;;;18.48;12.82;;;18.30;57.10;;;;;;6191775;23;20021;-76
2021/04/20 08:49:48;;;;;;;18.25;12.90;;;18.30;57.00;;;;;;6213965;23;20078;-77
2021/04/20 08:52:44;;;;;;;20.13;13.50;;;18.40;56.80;;;;;;6214207;23;20005;-77
2021/04/20 08:55:35;;;;;;;17.70;13.15;;;18.40;56.70;;;;;;6213843;23;20066;-75
2021/04/20 08:58:27;;;;;;;17.27;12.65;;;18.40;56.50;;;;;;6213741;23;20005;-79
2021/04/20 09:01:25;;;;;;;18.50;13.50;;;18.40;56.40;;;;;;6213819;23;19996;-76
2021/04/20 09:03:57;;;;;;;15.88;12.45;;;18.40;56.40;;;;;;6213821;23;20029;-76
2021/04/20 09:06:31;;;;;;;15.95;12.65;;;18.40;56.30;;;;;;6186961;23;20071;-77
2021/04/20 09:09:05;;;;;;;16.67;12.43;;;18.40;56.20;;;;;;6213871;23;20017;-75
2021/04/20 09:11:38;;;;;;;16.35;11.77;;;18.40;56.20;;;;;;6187243;23;20009;-76
2021/04/20 09:14:11;;;;;;;18.25;12.48;;;18.40;56.00;;;;;;6213189;23;20008;-78
2021/04/20 09:16:52;;;;;;;21.80;13.15;;;18.40;56.00;;;;;;6213439;23;20008;-77
2021/04/20 09:19:48;;;;;;;18.77;12.60;;;18.40;56.00;;;;;;6213585;23;20445;-78
2021/04/20 09:22:18;;;;;;;18.40;13.43;;;18.40;55.90;;;;;;6213379;23;20012;-74
2021/04/20 09:25:10;;;;;;;19.55;13.40;;;18.40;55.80;;;;;;6186748;23;20460;-75
2021/04/20 09:27:51;;;;;;;16.73;13.27;;;18.40;55.70;;;;;;6171529;23;20043;-75
2021/04/20 09:30:21;;;;;;;20.15;13.02;;;18.40;55.60;;;;;;6186611;23;20054;-77
2021/04/20 09:32:57;;;;;;;18.60;13.52;;;18.50;55.60;;;;;;6213554;23;20001;-74
2021/04/20 09:35:24;;;;;;;17.65;13.50;;;18.40;55.50;;;;;;6186749;23;20009;-75
2021/04/20 09:37:53;;;;;;;17.30;12.35;;;18.40;55.40;;;;;;6213517;23;20083;-77
2021/04/20 09:40:22;;;;;;;18.23;13.00;;;18.40;55.30;;;;;;6213672;23;20005;-77
2021/04/20 09:42:58;;;;;;;19.20;13.27;;;18.40;55.30;;;;;;6213404;23;20489;-76
2021/04/20 09:45:41;;;;;;;19.38;12.68;;;18.50;55.20;;;;;;6213209;23;20015;-76
2021/04/20 09:48:44;;;;;;;15.68;12.10;;;18.40;55.10;;;;;;6214088;23;20032;-75
2021/04/20 09:51:23;;;;;;;23.20;13.25;;;18.50;55.10;;;;;;6215961;23;20012;-77
2021/04/20 09:54:17;;;;;;;17.65;11.73;;;18.50;55.00;;;;;;6215483;23;19997;-80
2021/04/20 09:56:56;;;;;;;18.75;12.90;;;18.50;55.00;;;;;;6215646;23;20028;-77
2021/04/20 09:59:25;;;;;;;18.33;14.00;;;18.50;54.90;;;;;;6214474;23;20071;-77
2021/04/20 10:02:07;;;;;;;19.30;13.65;;;18.50;54.90;;;;;;6215038;23;20000;-77
2021/04/20 10:04:42;;;;;;;18.15;13.00;;;18.50;54.80;;;;;;6215241;23;20005;-76
2021/04/20 10:07:53;;;;;;;20.20;13.27;;;18.50;54.80;;;;;;6215545;23;20004;-78
2021/04/20 10:10:56;;;;;;;15.55;12.30;;;18.50;54.70;;;;;;6215126;23;20007;-75
2021/04/20 10:13:24;;;;;;;17.92;12.93;;;18.60;54.60;;;;;;6215419;23;20000;-77
2021/04/20 10:16:06;;;;;;;16.73;13.20;;;18.60;54.60;;;;;;6215244;23;20004;-76
2021/04/20 10:19:01;;;;;;;19.23;12.45;;;18.60;54.60;;;;;;6215302;23;20008;-75
2021/04/20 10:22:18;;;;;;;17.42;11.85;;;18.60;54.50;;;;;;6214288;23;20032;-76
2021/04/20 10:24:59;;;;;;;19.05;12.65;;;18.60;55.00;;;;;;6165279;23;20015;-73
2021/04/20 10:27:27;;;;;;;16.73;12.98;;;18.60;54.40;;;;;;6214893;23;20000;-74
2021/04/20 10:30:11;;;;;;;18.25;13.52;;;18.60;54.40;;;;;;6214635;23;20019;-75
2021/04/20 10:32:45;;;;;;;17.40;12.45;;;18.60;54.40;;;;;;6214964;23;20318;-76
2021/04/20 10:35:23;;;;;;;17.08;12.73;;;18.60;54.40;;;;;;6188589;23;20378;-76
2021/04/20 10:37:56;;;;;;;17.05;12.73;;;18.70;54.50;;;;;;6214768;23;20004;-75
2021/04/20 10:40:31;;;;;;;17.08;13.18;;;18.70;54.40;;;;;;6215304;23;20035;-78
2021/04/20 10:43:09;;;;;;;17.20;12.90;;;18.80;54.20;;;;;;6214869;23;20063;-80
2021/04/20 10:45:36;;;;;;;17.33;13.10;;;18.90;54.10;;;;;;6215106;23;20468;-77
2021/04/20 10:48:02;;;;;;;15.52;12.00;;;19.00;53.90;;;;;;6214034;23;20039;-76
2021/04/20 10:50:32;;;;;;;14.98;11.65;;;19.10;54.10;;;;;;6213911;23;20015;-75
2021/04/20 10:53:04;;;;;;;16.23;12.55;;;19.20;53.80;;;;;;6214631;23;20005;-75
2021/04/20 10:55:33;;;;;;;15.80;12.25;;;19.30;53.60;;;;;;6214640;23;20079;-75
2021/04/20 10:58:00;;;;;;;16.90;12.88;;;19.40;53.50;;;;;;6214723;23;20046;-75
2021/04/20 11:00:29;;;;;;;14.35;11.85;;;19.50;53.40;;;;;;6214506;23;20107;-75
2021/04/20 11:02:57;;;;;;;18.75;13.55;;;19.60;53.30;;;;;;6214662;23;20028;-78
2021/04/20 11:05:25;;;;;;;14.77;11.73;;;19.70;53.10;;;;;;6214581;23;20388;-77
2021/04/20 11:07:52;;;;;;;14.65;11.88;;;19.90;53.00;;;;;;6214618;23;20437;-76
2021/04/20 11:10:21;;;;;;;15.07;11.50;;;19.90;52.70;;;;;;6214428;23;20009;-78
2021/04/20 11:12:48;;;;;;;16.13;11.40;;;20.10;52.60;;;;;;6214639;23;20080;-76
2021/04/20 11:15:32;;;;;;;16.48;11.27;;;20.20;52.50;;;;;;6214806;23;20318;-75
2021/04/20 11:18:11;;;;;;;15.50;10.80;;;20.30;52.30;;;;;;6214917;23;20446;-76
2021/04/20 11:20:48;;;;;;;16.88;11.98;;;20.50;52.10;;;;;;6214611;23;20454;-74
2021/04/20 11:23:20;;;;;;;16.27;12.05;;;20.60;51.90;;;;;;6188288;23;20071;-74
2021/04/20 11:25:56;;;;;;;20.25;13.50;;;20.70;51.70;;;;;;6214488;23;20346;-74
2021/04/20 11:28:42;;;;;;;23.25;12.40;;;20.90;51.60;;;;;;6214863;23;20001;-75
2021/04/20 11:31:18;;;;;;;19.25;12.60;;;21.00;51.50;;;;;;6214243;23;20017;-74
2021/04/20 11:33:46;;;;;;;;;;;21.20;51.60;;;;;;6215229;23;20437;-75
2021/04/20 11:36:21;;;;;;;29.25;16.10;;;21.30;51.80;;;;;;6214203;23;19935;-75
2021/04/20 11:38:51;;;;;;;31.65;17.75;;;21.40;51.80;;;;;;6187929;23;20013;-76
2021/04/20 11:41:20;;;;;;;33.08;16.55;;;21.60;51.70;;;;;;6214735;23;20036;-75
2021/04/20 11:43:55;;;;;;;28.60;16.90;;;21.70;51.60;;;;;;6214498;23;20070;-75
2021/04/20 11:46:22;;;;;;;36.93;16.60;;;21.80;51.60;;;;;;6214316;23;20005;-75
2021/04/20 11:48:52;;;;;;;28.60;15.10;;;21.90;51.40;;;;;;6214449;23;20007;-74
2021/04/20 11:51:18;;;;;;;31.92;15.50;;;21.90;51.30;;;;;;6214533;23;20009;-74
2021/04/20 11:53:49;;;;;;;29.27;13.82;;;22.00;51.40;;;;;;6214324;23;20536;-75
2021/04/20 11:56:16;;;;;;;31.95;15.27;;;22.10;52.00;;;;;;6214537;23;20008;-74
2021/04/20 11:58:47;;;;;;;25.23;14.27;;;22.20;51.20;;;;;;6214217;23;19997;-75
2021/04/20 12:01:16;;;;;;;27.55;14.15;;;22.20;50.90;;;;;;6213975;23;20001;-79
2021/04/20 12:04:03;;;;;;;28.58;12.98;;;22.30;50.80;;;;;;6214010;23;20001;-75
2021/04/20 12:06:51;;;;;;;29.50;12.70;;;22.30;50.80;;;;;;6213334;23;20442;-77
2021/04/20 12:09:25;;;;;;;24.50;11.35;;;22.40;50.70;;;;;;6214294;23;20019;-77
2021/04/20 12:11:53;;;;;;;24.08;11.88;;;22.40;50.70;;;;;;6213744;23;20031;-76
2021/04/20 12:14:20;;;;;;;25.40;12.82;;;22.50;50.70;;;;;;6214508;23;20001;-76
2021/04/20 12:16:48;;;;;;;22.75;11.45;;;22.50;50.60;;;;;;6214410;23;20000;-76
2021/04/20 12:19:16;;;;;;;19.02;11.40;;;22.50;50.60;;;;;;6213602;23;20076;-75
2021/04/20 12:21:46;;;;;;;17.33;10.82;;;22.60;50.50;;;;;;6187069;23;20008;-76
2021/04/20 12:24:16;;;;;;;18.80;9.60;;;22.70;50.50;;;;;;6213980;23;20013;-76
2021/04/20 12:26:44;;;;;;;18.70;9.88;;;22.70;50.30;;;;;;6213931;23;20005;-76
2021/04/20 12:29:14;;;;;;;17.48;10.23;;;22.70;50.40;;;;;;6214011;23;20319;-76
2021/04/20 12:31:41;;;;;;;16.58;10.40;;;22.70;50.50;;;;;;6213935;23;20020;-77
2021/04/20 12:34:07;;;;;;;18.00;10.15;;;22.60;50.30;;;;;;6214105;23;20108;-76
2021/04/20 12:36:38;;;;;;;17.65;9.45;;;22.60;50.40;;;;;;6186912;23;20000;-76
2021/04/20 12:39:08;;;;;;;17.98;9.43;;;22.60;50.40;;;;;;6213549;23;20393;-76
2021/04/20 12:41:34;;;;;;;15.38;9.13;;;22.60;50.40;;;;;;6213915;23;20007;-76
2021/04/20 12:44:04;;;;;;;15.75;9.45;;;22.60;50.40;;;;;;6213849;23;20004;-76
2021/04/20 12:46:32;;;;;;;15.60;10.18;;;22.60;50.40;;;;;;6214035;23;20036;-75
2021/04/20 12:49:01;;;;;;;12.88;9.15;;;22.50;50.40;;;;;;6213910;23;20005;-76
2021/04/20 12:51:30;;;;;;;12.65;8.43;;;22.50;50.30;;;;;;6213396;23;20020;-77
2021/04/20 12:53:58;;;;;;;14.45;9.32;;;22.50;50.30;;;;;;6213639;23;20001;-76
2021/04/20 12:56:46;;;;;;;12.10;8.13;;;22.50;50.30;;;;;;6213735;23;20004;-76
2021/04/20 12:59:25;;;;;;;12.10;8.65;;;22.50;50.20;;;;;;6212131;23;20389;-75
2021/04/20 13:01:54;;;;;;;14.10;8.20;;;22.50;50.10;;;;;;6213866;23;20058;-76
2021/04/20 13:04:29;;;;;;;18.60;9.52;;;22.60;50.10;;;;;;6213901;23;20004;-76
2021/04/20 13:06:55;;;;;;;;;;;22.60;50.00;;;;;;6213973;23;20005;-76